createdAt,value
2018-07-02T00:00:27.910Z,13.20
2018-07-02T00:02:56.227Z,12.90
2018-07-02T00:05:32.277Z,12.80
2018-07-02T00:08:00.612Z,12.60
2018-07-02T00:10:28.928Z,12.60
2018-07-02T00:12:57.250Z,12.70
2018-07-02T00:18:18.152Z,13.00
2018-07-02T00:23:49.309Z,12.90
2018-07-02T00:29:10.346Z,12.90
2018-07-02T00:31:38.715Z,12.80
2018-07-02T00:34:07.053Z,12.80
2018-07-02T00:36:35.446Z,12.80
2018-07-02T00:39:05.404Z,12.90
2018-07-02T00:41:33.749Z,12.90
2018-07-02T00:44:02.098Z,12.70
2018-07-02T00:46:30.457Z,12.60
2018-07-02T00:48:58.825Z,12.50
2018-07-02T00:51:27.149Z,12.60
2018-07-02T00:53:55.849Z,12.60
2018-07-02T00:56:24.605Z,12.40
2018-07-02T00:58:52.905Z,12.20
2018-07-02T01:01:21.600Z,12.10
2018-07-02T01:03:50.384Z,11.90
2018-07-02T01:06:18.738Z,11.90
2018-07-02T01:08:47.027Z,11.90
2018-07-02T01:11:15.357Z,11.90
2018-07-02T01:13:43.678Z,11.90
2018-07-02T01:19:04.500Z,12.20
2018-07-02T01:26:25.506Z,12.20
2018-07-02T01:28:53.992Z,12.10
2018-07-02T01:31:22.307Z,11.80
2018-07-02T01:33:50.614Z,11.70
2018-07-02T01:36:18.930Z,11.70
2018-07-02T01:38:47.226Z,11.80
2018-07-02T01:41:15.528Z,12.00
2018-07-02T01:43:43.850Z,12.10
2018-07-02T01:46:12.144Z,12.20
2018-07-02T01:48:40.453Z,12.20
2018-07-02T01:51:08.769Z,12.10
2018-07-02T01:53:37.069Z,11.90
2018-07-02T01:56:05.389Z,11.80
2018-07-02T01:58:33.709Z,11.70
2018-07-02T02:01:01.999Z,11.70
2018-07-02T02:03:30.337Z,11.70
2018-07-02T02:05:58.602Z,11.60
2018-07-02T02:08:26.894Z,11.70
2018-07-02T02:10:55.235Z,11.80
2018-07-02T02:13:24.201Z,11.90
2018-07-02T02:15:52.509Z,12.00
2018-07-02T02:24:16.409Z,11.80
2018-07-02T03:12:42.783Z,12.00
2018-07-02T03:15:11.185Z,12.00
2018-07-02T03:23:22.848Z,12.20
2018-07-02T03:25:51.189Z,12.00
2018-07-02T03:28:19.528Z,12.10
2018-07-02T03:30:47.873Z,12.10
2018-07-02T03:33:16.230Z,12.10
2018-07-02T03:35:44.573Z,12.20
2018-07-02T03:38:12.922Z,12.10
2018-07-02T03:40:41.269Z,12.20
2018-07-02T03:43:09.609Z,12.30
2018-07-02T03:45:37.956Z,12.40
2018-07-02T03:48:06.621Z,12.50
2018-07-02T03:50:34.953Z,12.50
2018-07-02T03:53:03.281Z,12.60
2018-07-02T03:55:31.582Z,12.60
2018-07-02T03:57:59.892Z,12.70
2018-07-02T04:00:28.189Z,12.60
2018-07-02T04:02:56.489Z,12.60
2018-07-02T04:05:24.796Z,12.70
2018-07-02T04:07:53.105Z,12.70
2018-07-02T04:10:21.397Z,12.80
2018-07-02T04:18:57.313Z,13.00
2018-07-02T04:24:22.640Z,13.10
2018-07-02T04:26:50.957Z,13.20
2018-07-02T04:29:19.296Z,13.20
2018-07-02T04:31:47.637Z,13.30
2018-07-02T04:34:15.983Z,13.30
2018-07-02T04:36:44.306Z,13.40
2018-07-02T04:39:12.645Z,13.40
2018-07-02T04:41:40.985Z,13.50
2018-07-02T04:44:09.319Z,13.60
2018-07-02T04:46:37.681Z,13.60
2018-07-02T04:49:06.058Z,13.60
2018-07-02T04:51:34.410Z,13.70
2018-07-02T04:54:02.747Z,13.70
2018-07-02T04:56:31.059Z,13.80
2018-07-02T04:58:59.437Z,13.90
2018-07-02T05:01:27.773Z,13.90
2018-07-02T05:03:56.055Z,14.00
2018-07-02T05:06:24.341Z,14.00
2018-07-02T05:08:52.609Z,14.10
2018-07-02T05:11:20.904Z,14.00
2018-07-02T05:19:38.419Z,14.10
2018-07-02T05:24:59.778Z,14.30
2018-07-02T05:27:28.112Z,14.40
2018-07-02T05:29:56.428Z,14.50
2018-07-02T05:32:24.733Z,14.60
2018-07-02T05:34:53.068Z,14.70
2018-07-02T05:37:21.417Z,14.80
2018-07-02T05:39:49.756Z,14.90
2018-07-02T05:42:18.066Z,15.00
2018-07-02T05:44:46.377Z,15.20
2018-07-02T05:47:14.684Z,15.50
2018-07-02T05:49:43.013Z,15.70
2018-07-02T05:52:11.342Z,15.90
2018-07-02T05:54:39.663Z,16.00
2018-07-02T05:57:07.967Z,16.10
2018-07-02T05:59:36.262Z,16.20
2018-07-02T06:02:05.719Z,16.30
2018-07-02T06:04:34.020Z,16.40
2018-07-02T06:07:02.328Z,16.50
2018-07-02T06:09:30.616Z,16.50
2018-07-02T06:11:58.912Z,16.60
2018-07-02T06:14:27.226Z,16.60
2018-07-02T06:16:55.526Z,16.70
2018-07-02T06:19:37.545Z,16.70
2018-07-02T06:22:18.634Z,16.90
2018-07-02T06:27:39.766Z,16.90
2018-07-02T06:30:08.084Z,17.00
2018-07-02T06:32:36.403Z,17.00
2018-07-02T06:35:04.810Z,17.00
2018-07-02T06:37:33.121Z,17.10
2018-07-02T06:40:01.453Z,17.20
2018-07-02T06:42:29.801Z,17.30
2018-07-02T06:44:58.125Z,17.40
2018-07-02T06:47:26.510Z,17.50
2018-07-02T06:49:54.802Z,17.60
2018-07-02T06:52:23.122Z,17.70
2018-07-02T06:54:51.422Z,17.80
2018-07-02T06:57:19.684Z,17.90
2018-07-02T06:59:47.982Z,18.00
2018-07-02T07:02:16.244Z,18.10
2018-07-02T07:04:44.506Z,18.20
2018-07-02T07:07:12.810Z,18.20
2018-07-02T07:09:41.073Z,18.20
2018-07-02T07:12:10.218Z,18.20
2018-07-02T07:17:30.873Z,18.40
2018-07-02T07:22:52.073Z,18.60
2018-07-02T07:25:40.936Z,18.70
2018-07-02T07:28:09.254Z,18.80
2018-07-02T07:30:37.555Z,18.80
2018-07-02T07:33:05.826Z,18.80
2018-07-02T07:35:34.093Z,18.90
2018-07-02T07:38:02.372Z,19.00
2018-07-02T07:40:30.682Z,19.10
2018-07-02T07:42:58.984Z,19.10
2018-07-02T07:45:27.251Z,19.20
2018-07-02T07:47:55.533Z,19.30
2018-07-02T07:50:23.797Z,19.30
2018-07-02T07:52:52.092Z,19.30
2018-07-02T07:55:20.361Z,19.30
2018-07-02T07:57:48.636Z,19.40
2018-07-02T08:00:16.913Z,19.40
2018-07-02T08:02:45.210Z,19.40
2018-07-02T08:05:13.601Z,19.50
2018-07-02T08:07:41.865Z,19.50
2018-07-02T08:10:10.190Z,19.50
2018-07-02T08:12:38.487Z,19.50
2018-07-02T08:21:02.050Z,19.60
2018-07-02T08:26:23.625Z,19.70
2018-07-02T08:28:51.971Z,19.70
2018-07-02T08:31:20.291Z,19.80
2018-07-02T08:33:48.622Z,19.80
2018-07-02T08:36:16.938Z,19.90
2018-07-02T08:38:45.307Z,19.80
2018-07-02T08:41:13.633Z,19.80
2018-07-02T08:43:41.957Z,19.80
2018-07-02T08:46:10.277Z,19.70
2018-07-02T08:48:38.624Z,19.70
2018-07-02T08:51:07.022Z,19.70
2018-07-02T08:53:35.342Z,19.80
2018-07-02T08:56:03.630Z,19.80
2018-07-02T08:58:38.337Z,19.90
2018-07-02T09:01:06.646Z,19.70
2018-07-02T09:03:34.900Z,19.70
2018-07-02T09:06:03.196Z,19.90
2018-07-02T09:08:31.512Z,19.90
2018-07-02T09:10:59.800Z,19.90
2018-07-02T09:13:29.495Z,20.10
2018-07-02T09:15:57.822Z,20.10
2018-07-02T09:18:26.126Z,20.20
2018-07-02T09:23:47.729Z,20.30
2018-07-02T09:26:16.018Z,20.30
2018-07-02T09:28:44.326Z,20.30
2018-07-02T09:31:12.601Z,20.40
2018-07-02T09:33:40.897Z,20.50
2018-07-02T09:36:09.188Z,20.40
2018-07-02T09:38:43.765Z,20.50
2018-07-02T09:41:12.129Z,20.50
2018-07-02T09:43:40.437Z,20.50
2018-07-02T09:46:08.841Z,20.60
2018-07-02T09:48:37.140Z,20.60
2018-07-02T09:51:05.447Z,20.60
2018-07-02T09:53:33.756Z,20.70
2018-07-02T09:56:02.005Z,20.60
2018-07-02T09:58:30.285Z,20.70
2018-07-02T10:00:58.566Z,20.70
2018-07-02T10:03:26.924Z,20.90
2018-07-02T10:05:55.221Z,20.90
2018-07-02T10:08:23.530Z,21.10
2018-07-02T10:10:51.835Z,21.10
2018-07-02T11:17:36.945Z,23.10
2018-07-02T11:20:15.045Z,23.30
2018-07-02T11:22:43.525Z,24.10
2018-07-02T13:25:44.401Z,27.00
2018-07-02T13:28:12.712Z,26.70
2018-07-02T13:30:41.063Z,26.40
2018-07-02T13:33:09.388Z,26.50
2018-07-02T13:35:37.720Z,26.70
2018-07-02T13:38:06.049Z,26.50
2018-07-02T13:40:34.365Z,26.30
2018-07-02T13:43:02.732Z,26.30
2018-07-02T13:45:31.053Z,26.40
2018-07-02T13:47:59.380Z,26.10
2018-07-02T13:50:27.718Z,26.40
2018-07-02T13:52:56.029Z,26.40
2018-07-02T13:55:24.387Z,26.10
2018-07-02T13:57:52.641Z,26.30
2018-07-02T14:00:20.929Z,26.30
2018-07-02T14:02:49.226Z,26.40
2018-07-02T14:05:17.513Z,26.30
2018-07-02T14:07:45.781Z,26.80
2018-07-02T14:10:14.049Z,26.60
2018-07-02T14:12:44.095Z,26.40
2018-07-02T14:18:05.042Z,26.50
2018-07-02T15:12:14.938Z,27.00
2018-07-02T15:14:43.233Z,26.60
2018-07-02T15:17:11.565Z,26.80
2018-07-02T16:14:31.524Z,26.50
2018-07-02T16:16:59.857Z,26.40
2018-07-02T16:19:41.157Z,26.20
2018-07-02T16:22:09.625Z,26.40
2018-07-02T16:24:43.781Z,26.50
2018-07-02T16:27:12.186Z,26.40
2018-07-02T16:29:40.497Z,26.40
2018-07-02T16:32:08.821Z,26.50
2018-07-02T16:34:37.122Z,26.40
2018-07-02T16:37:05.710Z,26.60
2018-07-02T16:39:34.025Z,26.80
2018-07-02T16:42:02.336Z,26.70
2018-07-02T16:44:30.654Z,26.60
2018-07-02T16:46:58.991Z,26.50
2018-07-02T16:49:27.314Z,26.30
2018-07-02T16:51:55.750Z,25.90
2018-07-02T16:54:24.034Z,25.80
2018-07-02T16:56:52.313Z,25.80
2018-07-02T16:59:20.585Z,25.60
2018-07-02T17:01:48.857Z,25.90
2018-07-02T17:04:17.133Z,25.50
2018-07-02T17:06:45.416Z,25.20
2018-07-02T17:09:13.760Z,25.20
2018-07-02T17:11:42.022Z,25.20
2018-07-02T17:17:03.621Z,24.90
2018-07-02T17:22:25.433Z,24.80
2018-07-02T17:27:46.144Z,24.70
2018-07-02T17:30:14.446Z,24.60
2018-07-02T17:32:42.769Z,24.70
2018-07-02T17:35:10.785Z,24.50
2018-07-02T17:37:39.175Z,24.60
2018-07-02T17:40:07.768Z,24.60
2018-07-02T17:42:36.329Z,24.50
2018-07-02T17:45:05.070Z,24.50
2018-07-02T17:47:33.529Z,24.30
2018-07-02T17:50:01.865Z,24.30
2018-07-02T17:52:30.169Z,24.20
2018-07-02T17:54:58.485Z,24.00
2018-07-02T17:57:26.778Z,24.00
2018-07-02T17:59:55.069Z,23.80
2018-07-02T18:02:24.045Z,23.80
2018-07-02T18:04:52.362Z,23.70
2018-07-02T18:07:20.794Z,23.70
2018-07-02T18:09:49.147Z,23.60
2018-07-02T18:12:17.399Z,23.60
2018-07-02T18:17:38.808Z,23.40
2018-07-02T18:23:00.482Z,23.30
2018-07-02T19:17:00.575Z,20.70
2018-07-02T19:19:28.881Z,20.60
2018-07-02T19:21:58.553Z,20.30
2018-07-02T19:24:26.889Z,20.30
2018-07-02T19:26:55.190Z,20.30
2018-07-02T19:29:23.565Z,20.20
2018-07-02T19:31:51.811Z,20.10
2018-07-02T19:34:20.214Z,20.10
2018-07-02T19:36:48.529Z,20.00
2018-07-02T19:39:16.846Z,19.80
2018-07-02T19:41:45.189Z,19.80
2018-07-02T19:44:13.506Z,19.70
2018-07-02T19:46:41.836Z,19.70
2018-07-02T19:49:10.137Z,19.70
2018-07-02T19:51:38.477Z,19.70
2018-07-02T19:54:06.757Z,19.60
2018-07-02T19:56:35.066Z,19.50
2018-07-02T19:59:03.341Z,19.40
2018-07-02T20:01:31.645Z,19.40
2018-07-02T20:03:59.933Z,19.30
2018-07-02T20:06:28.234Z,19.30
2018-07-02T20:08:56.521Z,19.30
2018-07-02T20:11:25.129Z,19.20
2018-07-02T20:14:02.195Z,19.20
2018-07-02T20:19:36.625Z,19.10
2018-07-02T20:22:08.379Z,19.00
2018-07-02T20:24:54.790Z,19.00
2018-07-02T20:30:07.894Z,18.80
2018-07-02T20:45:41.730Z,18.60
2018-07-02T20:48:16.735Z,18.60
2018-07-02T20:53:31.354Z,18.60
2018-07-02T21:03:52.695Z,18.40
2018-07-02T21:09:09.217Z,18.40
2018-07-02T21:14:14.993Z,18.30
2018-07-02T21:16:43.310Z,18.30
2018-07-02T21:19:13.801Z,18.30
2018-07-02T21:21:42.119Z,18.30
2018-07-02T21:27:03.510Z,18.30
2018-07-02T21:29:31.885Z,18.20
2018-07-02T21:32:00.205Z,18.20
2018-07-02T21:34:28.508Z,18.20
2018-07-02T21:36:56.847Z,18.20
2018-07-02T21:39:25.186Z,18.20
2018-07-02T21:41:53.528Z,18.20
2018-07-02T21:44:21.894Z,18.30
2018-07-02T21:46:50.204Z,18.30
2018-07-02T21:49:18.459Z,18.30
2018-07-02T21:51:46.748Z,18.30
2018-07-02T21:54:15.020Z,18.30
2018-07-02T21:56:43.316Z,18.30
2018-07-02T21:59:11.610Z,18.30
2018-07-02T22:01:39.925Z,18.30
2018-07-02T22:04:08.229Z,18.20
2018-07-02T22:06:36.487Z,18.10
2018-07-02T22:09:07.313Z,18.10
2018-07-02T22:11:35.619Z,18.10
2018-07-02T22:14:24.257Z,18.20
2018-07-02T22:16:52.577Z,18.10
2018-07-02T22:19:27.702Z,18.10
2018-07-02T22:21:56.265Z,18.10
2018-07-02T22:24:24.621Z,18.10
2018-07-02T23:21:27.562Z,16.70
2018-07-02T23:23:55.869Z,16.70
2018-07-02T23:26:24.209Z,16.60
2018-07-02T23:28:52.616Z,16.50
2018-07-02T23:31:20.951Z,16.50
2018-07-02T23:33:49.284Z,16.40
2018-07-02T23:36:17.574Z,16.30
2018-07-02T23:38:45.889Z,16.30
2018-07-02T23:41:14.233Z,16.30
2018-07-02T23:43:42.541Z,16.30
2018-07-02T23:46:10.836Z,16.30
2018-07-02T23:48:39.144Z,16.20
2018-07-02T23:51:07.461Z,16.20
2018-07-02T23:53:35.821Z,16.10
2018-07-02T23:56:04.129Z,16.10
2018-07-02T23:58:32.417Z,16.00
